sensor_id;sensor_type;location;lat;lon;timestamp;temperature;humidity
18426;DHT22;9340;48.756;9.226;2023-04-29T00:01:45;11.20;99.90
18426;DHT22;9340;48.756;9.226;2023-04-29T00:04:16;11.10;99.90
18426;DHT22;9340;48.756;9.226;2023-04-29T00:06:43;11.10;99.90
18426;DHT22;9340;48.756;9.226;2023-04-29T00:09:09;11.10;99.90
18426;DHT22;9340;48.756;9.226;2023-04-29T00:11:36;11.10;99.90
18426;DHT22;9340;48.756;9.226;2023-04-29T00:14:03;11.10;99.90
18426;DHT22;9340;48.756;9.226;2023-04-29T00:16:29;11.10;99.90
18426;DHT22;9340;48.756;9.226;2023-04-29T00:18:56;11.10;99.90
18426;DHT22;9340;48.756;9.226;2023-04-29T00:21:25;11.10;99.90
18426;DHT22;9340;48.756;9.226;2023-04-29T00:23:53;11.10;99.90
18426;DHT22;9340;48.756;9.226;2023-04-29T00:26:19;11.10;99.90
18426;DHT22;9340;48.756;9.226;2023-04-29T00:28:46;11.10;99.90
18426;DHT22;9340;48.756;9.226;2023-04-29T00:31:13;11.00;99.90
18426;DHT22;9340;48.756;9.226;2023-04-29T00:33:40;11.00;99.90
18426;DHT22;9340;48.756;9.226;2023-04-29T00:36:07;11.00;99.90
18426;DHT22;9340;48.756;9.226;2023-04-29T00:38:36;11.00;99.90
18426;DHT22;9340;48.756;9.226;2023-04-29T00:41:02;10.90;99.90
18426;DHT22;9340;48.756;9.226;2023-04-29T00:43:29;10.90;99.90
18426;DHT22;9340;48.756;9.226;2023-04-29T00:45:56;10.90;99.90
18426;DHT22;9340;48.756;9.226;2023-04-29T00:48:23;10.90;99.90
18426;DHT22;9340;48.756;9.226;2023-04-29T00:50:49;10.90;99.90
18426;DHT22;9340;48.756;9.226;2023-04-29T00:53:16;10.90;99.90
18426;DHT22;9340;48.756;9.226;2023-04-29T00:55:45;10.90;99.90
18426;DHT22;9340;48.756;9.226;2023-04-29T00:58:13;11.00;99.90
18426;DHT22;9340;48.756;9.226;2023-04-29T01:00:40;10.90;99.90
18426;DHT22;9340;48.756;9.226;2023-04-29T01:03:08;10.90;99.90
18426;DHT22;9340;48.756;9.226;2023-04-29T01:05:35;10.90;99.90
18426;DHT22;9340;48.756;9.226;2023-04-29T01:08:13;10.90;99.90
18426;DHT22;9340;48.756;9.226;2023-04-29T01:10:48;10.80;99.90
18426;DHT22;9340;48.756;9.226;2023-04-29T01:13:28;10.80;99.90
18426;DHT22;9340;48.756;9.226;2023-04-29T01:16:00;10.70;99.90
18426;DHT22;9340;48.756;9.226;2023-04-29T01:18:31;10.70;99.90
18426;DHT22;9340;48.756;9.226;2023-04-29T01:20:59;10.70;99.90
18426;DHT22;9340;48.756;9.226;2023-04-29T01:23:27;10.70;99.90
18426;DHT22;9340;48.756;9.226;2023-04-29T01:25:54;10.70;99.90
18426;DHT22;9340;48.756;9.226;2023-04-29T01:28:36;10.60;99.90
18426;DHT22;9340;48.756;9.226;2023-04-29T01:31:06;10.60;99.90
18426;DHT22;9340;48.756;9.226;2023-04-29T01:33:40;10.60;99.90
18426;DHT22;9340;48.756;9.226;2023-04-29T01:36:16;10.70;99.90
18426;DHT22;9340;48.756;9.226;2023-04-29T01:38:51;10.70;99.90
18426;DHT22;9340;48.756;9.226;2023-04-29T01:41:23;10.50;99.90
18426;DHT22;9340;48.756;9.226;2023-04-29T01:43:55;10.60;99.90
18426;DHT22;9340;48.756;9.226;2023-04-29T01:46:23;10.60;99.90
18426;DHT22;9340;48.756;9.226;2023-04-29T01:48:52;10.50;99.90
18426;DHT22;9340;48.756;9.226;2023-04-29T01:51:18;10.60;99.90
18426;DHT22;9340;48.756;9.226;2023-04-29T01:53:45;10.50;99.90
18426;DHT22;9340;48.756;9.226;2023-04-29T01:56:13;10.50;99.90
18426;DHT22;9340;48.756;9.226;2023-04-29T01:58:40;10.50;99.90
18426;DHT22;9340;48.756;9.226;2023-04-29T02:01:07;10.40;99.90
18426;DHT22;9340;48.756;9.226;2023-04-29T02:03:34;10.40;99.90
18426;DHT22;9340;48.756;9.226;2023-04-29T02:06:01;10.40;99.90
18426;DHT22;9340;48.756;9.226;2023-04-29T02:08:28;10.30;99.90
18426;DHT22;9340;48.756;9.226;2023-04-29T02:10:56;10.30;99.90
18426;DHT22;9340;48.756;9.226;2023-04-29T02:13:24;10.30;99.90
18426;DHT22;9340;48.756;9.226;2023-04-29T02:15:51;10.30;99.90
18426;DHT22;9340;48.756;9.226;2023-04-29T02:18:18;10.20;99.90
18426;DHT22;9340;48.756;9.226;2023-04-29T02:20:44;10.20;99.90
18426;DHT22;9340;48.756;9.226;2023-04-29T02:23:11;10.10;99.90
18426;DHT22;9340;48.756;9.226;2023-04-29T02:25:38;10.20;99.90
18426;DHT22;9340;48.756;9.226;2023-04-29T02:28:05;10.10;99.90
18426;DHT22;9340;48.756;9.226;2023-04-29T02:30:33;10.10;99.90
18426;DHT22;9340;48.756;9.226;2023-04-29T02:32:59;10.10;99.90
18426;DHT22;9340;48.756;9.226;2023-04-29T02:35:26;10.10;99.90
18426;DHT22;9340;48.756;9.226;2023-04-29T02:37:53;10.00;99.90
18426;DHT22;9340;48.756;9.226;2023-04-29T02:40:19;10.00;99.90
18426;DHT22;9340;48.756;9.226;2023-04-29T02:42:46;10.00;99.90
18426;DHT22;9340;48.756;9.226;2023-04-29T02:45:13;10.00;99.90
18426;DHT22;9340;48.756;9.226;2023-04-29T02:47:41;10.00;99.90
18426;DHT22;9340;48.756;9.226;2023-04-29T02:50:08;9.90;99.90
18426;DHT22;9340;48.756;9.226;2023-04-29T02:52:35;10.00;99.90
18426;DHT22;9340;48.756;9.226;2023-04-29T02:55:02;10.00;99.90
18426;DHT22;9340;48.756;9.226;2023-04-29T02:57:29;9.90;99.90
18426;DHT22;9340;48.756;9.226;2023-04-29T02:59:56;9.90;99.90
18426;DHT22;9340;48.756;9.226;2023-04-29T03:02:23;9.90;99.90
18426;DHT22;9340;48.756;9.226;2023-04-29T03:04:51;9.80;99.90
18426;DHT22;9340;48.756;9.226;2023-04-29T03:07:17;9.80;99.90
18426;DHT22;9340;48.756;9.226;2023-04-29T03:09:44;9.80;99.90
18426;DHT22;9340;48.756;9.226;2023-04-29T03:12:11;9.80;99.90
18426;DHT22;9340;48.756;9.226;2023-04-29T03:14:37;9.80;99.90
18426;DHT22;9340;48.756;9.226;2023-04-29T03:17:04;9.70;99.90
18426;DHT22;9340;48.756;9.226;2023-04-29T03:19:30;9.70;99.90
18426;DHT22;9340;48.756;9.226;2023-04-29T03:21:58;9.70;99.90
18426;DHT22;9340;48.756;9.226;2023-04-29T03:24:25;9.70;99.90
18426;DHT22;9340;48.756;9.226;2023-04-29T03:26:52;9.60;99.90
18426;DHT22;9340;48.756;9.226;2023-04-29T03:29:19;9.60;99.90
18426;DHT22;9340;48.756;9.226;2023-04-29T03:31:45;9.60;99.90
18426;DHT22;9340;48.756;9.226;2023-04-29T03:34:12;9.60;99.90
18426;DHT22;9340;48.756;9.226;2023-04-29T03:36:39;9.60;99.90
18426;DHT22;9340;48.756;9.226;2023-04-29T03:39:07;9.50;99.90
18426;DHT22;9340;48.756;9.226;2023-04-29T03:41:34;9.50;99.90
18426;DHT22;9340;48.756;9.226;2023-04-29T03:44:01;9.50;99.90
18426;DHT22;9340;48.756;9.226;2023-04-29T03:46:27;9.40;99.90
18426;DHT22;9340;48.756;9.226;2023-04-29T03:48:54;9.40;99.90
18426;DHT22;9340;48.756;9.226;2023-04-29T03:51:21;9.40;99.90
18426;DHT22;9340;48.756;9.226;2023-04-29T03:53:48;9.40;99.90
18426;DHT22;9340;48.756;9.226;2023-04-29T03:56:17;9.40;99.90
18426;DHT22;9340;48.756;9.226;2023-04-29T03:58:44;9.40;99.90
18426;DHT22;9340;48.756;9.226;2023-04-29T04:01:10;9.40;99.90
18426;DHT22;9340;48.756;9.226;2023-04-29T04:03:37;9.30;99.90
18426;DHT22;9340;48.756;9.226;2023-04-29T04:06:04;9.30;99.90
18426;DHT22;9340;48.756;9.226;2023-04-29T04:08:30;9.20;99.90
18426;DHT22;9340;48.756;9.226;2023-04-29T04:10:57;9.20;99.90
18426;DHT22;9340;48.756;9.226;2023-04-29T04:13:28;9.20;99.90
18426;DHT22;9340;48.756;9.226;2023-04-29T04:15:55;9.20;99.90
18426;DHT22;9340;48.756;9.226;2023-04-29T04:18:22;9.20;99.90
18426;DHT22;9340;48.756;9.226;2023-04-29T04:20:49;9.20;99.90
18426;DHT22;9340;48.756;9.226;2023-04-29T04:23:15;9.20;99.90
18426;DHT22;9340;48.756;9.226;2023-04-29T04:25:44;9.20;99.90
18426;DHT22;9340;48.756;9.226;2023-04-29T04:28:11;9.20;99.90
18426;DHT22;9340;48.756;9.226;2023-04-29T04:30:40;9.30;99.90
18426;DHT22;9340;48.756;9.226;2023-04-29T04:33:07;9.20;99.90
18426;DHT22;9340;48.756;9.226;2023-04-29T04:35:35;9.20;99.90
18426;DHT22;9340;48.756;9.226;2023-04-29T04:38:01;9.30;99.90
18426;DHT22;9340;48.756;9.226;2023-04-29T04:40:28;9.30;99.90
18426;DHT22;9340;48.756;9.226;2023-04-29T04:42:55;9.30;99.90
18426;DHT22;9340;48.756;9.226;2023-04-29T04:45:21;9.30;99.90
18426;DHT22;9340;48.756;9.226;2023-04-29T04:47:49;9.30;99.90
18426;DHT22;9340;48.756;9.226;2023-04-29T04:50:16;9.40;99.90
18426;DHT22;9340;48.756;9.226;2023-04-29T04:52:43;9.40;99.90
18426;DHT22;9340;48.756;9.226;2023-04-29T04:55:10;9.40;99.90
18426;DHT22;9340;48.756;9.226;2023-04-29T04:57:37;9.40;99.90
18426;DHT22;9340;48.756;9.226;2023-04-29T05:00:04;9.50;99.90
18426;DHT22;9340;48.756;9.226;2023-04-29T05:02:31;9.50;99.90
18426;DHT22;9340;48.756;9.226;2023-04-29T05:04:59;9.50;99.90
18426;DHT22;9340;48.756;9.226;2023-04-29T05:07:26;9.50;99.90
18426;DHT22;9340;48.756;9.226;2023-04-29T05:09:52;9.50;99.90
18426;DHT22;9340;48.756;9.226;2023-04-29T05:12:19;9.60;99.90
18426;DHT22;9340;48.756;9.226;2023-04-29T05:14:46;9.70;99.90
18426;DHT22;9340;48.756;9.226;2023-04-29T05:17:12;9.80;99.90
18426;DHT22;9340;48.756;9.226;2023-04-29T05:19:39;9.90;99.90
18426;DHT22;9340;48.756;9.226;2023-04-29T05:22:07;10.10;99.90
18426;DHT22;9340;48.756;9.226;2023-04-29T05:24:34;10.20;99.90
18426;DHT22;9340;48.756;9.226;2023-04-29T05:27:03;10.30;99.90
18426;DHT22;9340;48.756;9.226;2023-04-29T05:29:29;10.30;99.90
18426;DHT22;9340;48.756;9.226;2023-04-29T05:31:56;10.40;99.90
18426;DHT22;9340;48.756;9.226;2023-04-29T05:34:23;10.50;99.90
18426;DHT22;9340;48.756;9.226;2023-04-29T05:36:50;10.90;99.90
18426;DHT22;9340;48.756;9.226;2023-04-29T05:39:18;11.10;99.90
18426;DHT22;9340;48.756;9.226;2023-04-29T05:41:45;11.30;99.90
18426;DHT22;9340;48.756;9.226;2023-04-29T05:44:11;11.40;99.90
18426;DHT22;9340;48.756;9.226;2023-04-29T05:46:38;11.50;99.90
18426;DHT22;9340;48.756;9.226;2023-04-29T05:49:05;11.70;99.90
18426;DHT22;9340;48.756;9.226;2023-04-29T05:51:31;11.90;99.90
18426;DHT22;9340;48.756;9.226;2023-04-29T05:53:58;12.10;99.90
18426;DHT22;9340;48.756;9.226;2023-04-29T05:56:26;12.60;99.90
18426;DHT22;9340;48.756;9.226;2023-04-29T05:58:53;12.90;99.90
18426;DHT22;9340;48.756;9.226;2023-04-29T06:01:19;13.00;99.90
18426;DHT22;9340;48.756;9.226;2023-04-29T06:03:46;13.20;99.90
18426;DHT22;9340;48.756;9.226;2023-04-29T06:06:12;13.30;99.90
18426;DHT22;9340;48.756;9.226;2023-04-29T06:08:40;13.30;99.90
18426;DHT22;9340;48.756;9.226;2023-04-29T06:11:06;13.40;99.90
18426;DHT22;9340;48.756;9.226;2023-04-29T06:13:34;13.60;99.90
18426;DHT22;9340;48.756;9.226;2023-04-29T06:16:01;13.70;99.90
18426;DHT22;9340;48.756;9.226;2023-04-29T06:18:28;13.80;99.90
18426;DHT22;9340;48.756;9.226;2023-04-29T06:20:54;14.00;99.90
18426;DHT22;9340;48.756;9.226;2023-04-29T06:23:21;14.20;99.90
18426;DHT22;9340;48.756;9.226;2023-04-29T06:25:48;14.60;99.90
18426;DHT22;9340;48.756;9.226;2023-04-29T06:28:14;14.70;99.90
18426;DHT22;9340;48.756;9.226;2023-04-29T06:30:43;14.70;99.90
18426;DHT22;9340;48.756;9.226;2023-04-29T06:33:10;14.60;99.90
18426;DHT22;9340;48.756;9.226;2023-04-29T06:35:38;14.40;99.90
18426;DHT22;9340;48.756;9.226;2023-04-29T06:38:05;14.30;99.90
18426;DHT22;9340;48.756;9.226;2023-04-29T06:40:32;14.30;99.90
18426;DHT22;9340;48.756;9.226;2023-04-29T06:42:59;14.30;99.90
18426;DHT22;9340;48.756;9.226;2023-04-29T06:45:26;14.30;99.90
18426;DHT22;9340;48.756;9.226;2023-04-29T06:47:54;14.40;99.90
18426;DHT22;9340;48.756;9.226;2023-04-29T06:50:22;14.70;99.90
18426;DHT22;9340;48.756;9.226;2023-04-29T06:52:48;14.80;99.90
18426;DHT22;9340;48.756;9.226;2023-04-29T06:55:15;14.80;99.90
18426;DHT22;9340;48.756;9.226;2023-04-29T06:57:42;14.90;99.90
18426;DHT22;9340;48.756;9.226;2023-04-29T07:00:09;14.80;99.90
18426;DHT22;9340;48.756;9.226;2023-04-29T07:02:36;14.90;99.90
18426;DHT22;9340;48.756;9.226;2023-04-29T07:05:05;15.00;99.90
18426;DHT22;9340;48.756;9.226;2023-04-29T07:07:32;15.10;99.90
18426;DHT22;9340;48.756;9.226;2023-04-29T07:09:59;15.00;99.90
18426;DHT22;9340;48.756;9.226;2023-04-29T07:12:25;15.00;99.90
18426;DHT22;9340;48.756;9.226;2023-04-29T07:14:53;14.80;99.90
18426;DHT22;9340;48.756;9.226;2023-04-29T07:17:19;14.60;99.90
18426;DHT22;9340;48.756;9.226;2023-04-29T07:19:46;14.60;99.90
18426;DHT22;9340;48.756;9.226;2023-04-29T07:22:14;14.60;99.90
18426;DHT22;9340;48.756;9.226;2023-04-29T07:24:41;14.60;99.90
18426;DHT22;9340;48.756;9.226;2023-04-29T07:27:07;14.60;99.90
18426;DHT22;9340;48.756;9.226;2023-04-29T07:29:34;14.70;99.90
18426;DHT22;9340;48.756;9.226;2023-04-29T07:32:00;14.90;99.90
18426;DHT22;9340;48.756;9.226;2023-04-29T07:34:27;15.00;99.90
18426;DHT22;9340;48.756;9.226;2023-04-29T07:36:54;15.10;99.90
18426;DHT22;9340;48.756;9.226;2023-04-29T07:39:23;15.30;99.90
18426;DHT22;9340;48.756;9.226;2023-04-29T07:41:49;15.60;99.90
18426;DHT22;9340;48.756;9.226;2023-04-29T07:44:16;16.00;99.90
18426;DHT22;9340;48.756;9.226;2023-04-29T07:46:43;16.30;99.90
18426;DHT22;9340;48.756;9.226;2023-04-29T07:49:09;16.40;99.90
18426;DHT22;9340;48.756;9.226;2023-04-29T07:51:39;16.50;99.90
18426;DHT22;9340;48.756;9.226;2023-04-29T07:54:06;16.70;99.90
18426;DHT22;9340;48.756;9.226;2023-04-29T07:56:34;16.60;99.90
18426;DHT22;9340;48.756;9.226;2023-04-29T07:59:01;16.40;99.90
18426;DHT22;9340;48.756;9.226;2023-04-29T08:01:28;16.40;99.90
18426;DHT22;9340;48.756;9.226;2023-04-29T08:03:54;16.30;99.90
18426;DHT22;9340;48.756;9.226;2023-04-29T08:06:21;16.40;99.90
18426;DHT22;9340;48.756;9.226;2023-04-29T08:08:48;16.30;99.90
18426;DHT22;9340;48.756;9.226;2023-04-29T08:11:15;16.30;99.90
18426;DHT22;9340;48.756;9.226;2023-04-29T08:13:44;16.30;99.90
18426;DHT22;9340;48.756;9.226;2023-04-29T08:16:11;16.50;99.90
18426;DHT22;9340;48.756;9.226;2023-04-29T08:18:37;16.70;99.90
18426;DHT22;9340;48.756;9.226;2023-04-29T08:21:05;16.80;99.90
18426;DHT22;9340;48.756;9.226;2023-04-29T08:23:31;17.00;99.90
18426;DHT22;9340;48.756;9.226;2023-04-29T08:25:58;16.90;99.90
18426;DHT22;9340;48.756;9.226;2023-04-29T08:28:25;16.90;99.90
18426;DHT22;9340;48.756;9.226;2023-04-29T08:30:53;17.10;99.90
18426;DHT22;9340;48.756;9.226;2023-04-29T08:33:21;17.30;99.90
18426;DHT22;9340;48.756;9.226;2023-04-29T08:35:47;17.50;99.90
18426;DHT22;9340;48.756;9.226;2023-04-29T08:38:14;17.60;99.90
18426;DHT22;9340;48.756;9.226;2023-04-29T08:40:43;17.80;99.90
18426;DHT22;9340;48.756;9.226;2023-04-29T08:43:10;17.70;99.90
18426;DHT22;9340;48.756;9.226;2023-04-29T08:45:38;17.70;99.90
18426;DHT22;9340;48.756;9.226;2023-04-29T08:48:07;17.40;99.90
18426;DHT22;9340;48.756;9.226;2023-04-29T08:50:37;16.90;99.90
18426;DHT22;9340;48.756;9.226;2023-04-29T08:53:04;16.50;99.90
18426;DHT22;9340;48.756;9.226;2023-04-29T08:55:33;16.00;99.90
18426;DHT22;9340;48.756;9.226;2023-04-29T08:58:01;15.50;99.90
18426;DHT22;9340;48.756;9.226;2023-04-29T09:00:30;15.20;99.90
18426;DHT22;9340;48.756;9.226;2023-04-29T09:02:57;15.10;99.90
18426;DHT22;9340;48.756;9.226;2023-04-29T09:05:27;14.90;99.90
18426;DHT22;9340;48.756;9.226;2023-04-29T09:07:56;14.80;99.90
18426;DHT22;9340;48.756;9.226;2023-04-29T09:10:24;14.90;99.90
18426;DHT22;9340;48.756;9.226;2023-04-29T09:12:55;15.10;99.90
18426;DHT22;9340;48.756;9.226;2023-04-29T09:15:21;15.50;99.90
18426;DHT22;9340;48.756;9.226;2023-04-29T09:17:48;15.90;99.90
18426;DHT22;9340;48.756;9.226;2023-04-29T09:20:27;16.40;99.90
18426;DHT22;9340;48.756;9.226;2023-04-29T09:22:54;16.80;99.90
18426;DHT22;9340;48.756;9.226;2023-04-29T09:25:22;17.10;99.90
18426;DHT22;9340;48.756;9.226;2023-04-29T09:27:49;17.20;99.90
18426;DHT22;9340;48.756;9.226;2023-04-29T09:30:16;17.20;99.90
18426;DHT22;9340;48.756;9.226;2023-04-29T09:32:44;17.00;99.90
18426;DHT22;9340;48.756;9.226;2023-04-29T09:35:22;16.70;99.90
18426;DHT22;9340;48.756;9.226;2023-04-29T09:37:51;16.70;99.90
18426;DHT22;9340;48.756;9.226;2023-04-29T09:40:28;17.00;99.90
18426;DHT22;9340;48.756;9.226;2023-04-29T09:42:56;17.40;99.90
18426;DHT22;9340;48.756;9.226;2023-04-29T09:45:33;17.70;99.90
18426;DHT22;9340;48.756;9.226;2023-04-29T09:48:01;18.20;99.90
18426;DHT22;9340;48.756;9.226;2023-04-29T09:50:29;18.60;99.90
18426;DHT22;9340;48.756;9.226;2023-04-29T09:52:57;19.10;99.90
18426;DHT22;9340;48.756;9.226;2023-04-29T09:55:24;19.00;99.90
18426;DHT22;9340;48.756;9.226;2023-04-29T09:57:52;19.00;99.90
18426;DHT22;9340;48.756;9.226;2023-04-29T10:00:18;19.20;99.90
18426;DHT22;9340;48.756;9.226;2023-04-29T10:02:46;19.40;99.90
18426;DHT22;9340;48.756;9.226;2023-04-29T10:05:13;19.60;99.90
18426;DHT22;9340;48.756;9.226;2023-04-29T10:07:41;19.80;99.90
18426;DHT22;9340;48.756;9.226;2023-04-29T10:10:09;19.50;99.90
18426;DHT22;9340;48.756;9.226;2023-04-29T10:12:39;19.60;99.90
18426;DHT22;9340;48.756;9.226;2023-04-29T10:15:12;19.40;99.90
18426;DHT22;9340;48.756;9.226;2023-04-29T10:17:45;19.10;99.90
18426;DHT22;9340;48.756;9.226;2023-04-29T10:20:16;18.80;99.90
18426;DHT22;9340;48.756;9.226;2023-04-29T10:22:48;18.40;99.90
18426;DHT22;9340;48.756;9.226;2023-04-29T10:25:18;17.80;99.90
18426;DHT22;9340;48.756;9.226;2023-04-29T10:27:46;17.30;99.90
18426;DHT22;9340;48.756;9.226;2023-04-29T10:30:14;17.20;99.90
18426;DHT22;9340;48.756;9.226;2023-04-29T10:32:42;17.40;99.90
18426;DHT22;9340;48.756;9.226;2023-04-29T10:35:11;17.70;99.90
18426;DHT22;9340;48.756;9.226;2023-04-29T10:37:39;18.20;99.90
18426;DHT22;9340;48.756;9.226;2023-04-29T10:40:10;18.90;99.90
18426;DHT22;9340;48.756;9.226;2023-04-29T10:42:45;19.20;99.90
18426;DHT22;9340;48.756;9.226;2023-04-29T10:45:19;19.20;99.90
18426;DHT22;9340;48.756;9.226;2023-04-29T10:48:08;19.10;99.90
18426;DHT22;9340;48.756;9.226;2023-04-29T10:50:41;18.90;99.90
18426;DHT22;9340;48.756;9.226;2023-04-29T10:53:24;19.00;99.90
18426;DHT22;9340;48.756;9.226;2023-04-29T10:55:53;19.40;99.90
18426;DHT22;9340;48.756;9.226;2023-04-29T10:58:38;20.00;99.90
18426;DHT22;9340;48.756;9.226;2023-04-29T11:01:06;20.30;99.90
18426;DHT22;9340;48.756;9.226;2023-04-29T11:03:52;20.70;99.90
18426;DHT22;9340;48.756;9.226;2023-04-29T11:06:23;20.80;99.90
18426;DHT22;9340;48.756;9.226;2023-04-29T11:08:59;20.60;99.90
18426;DHT22;9340;48.756;9.226;2023-04-29T11:11:42;20.00;99.90
18426;DHT22;9340;48.756;9.226;2023-04-29T11:14:12;19.10;99.90
18426;DHT22;9340;48.756;9.226;2023-04-29T11:16:46;18.40;99.90
18426;DHT22;9340;48.756;9.226;2023-04-29T11:19:15;18.30;99.90
18426;DHT22;9340;48.756;9.226;2023-04-29T11:21:43;18.60;99.90
18426;DHT22;9340;48.756;9.226;2023-04-29T11:24:10;18.70;99.90
18426;DHT22;9340;48.756;9.226;2023-04-29T11:26:37;18.90;99.90
18426;DHT22;9340;48.756;9.226;2023-04-29T11:29:04;18.80;99.90
18426;DHT22;9340;48.756;9.226;2023-04-29T11:31:34;19.00;99.90
18426;DHT22;9340;48.756;9.226;2023-04-29T11:34:03;18.90;99.90
18426;DHT22;9340;48.756;9.226;2023-04-29T11:36:30;18.90;99.90
18426;DHT22;9340;48.756;9.226;2023-04-29T11:38:59;19.00;99.90
18426;DHT22;9340;48.756;9.226;2023-04-29T11:41:26;19.30;99.90
18426;DHT22;9340;48.756;9.226;2023-04-29T11:43:56;19.40;99.90
18426;DHT22;9340;48.756;9.226;2023-04-29T11:46:23;19.70;99.90
18426;DHT22;9340;48.756;9.226;2023-04-29T11:48:51;19.80;99.90
18426;DHT22;9340;48.756;9.226;2023-04-29T11:51:18;19.80;99.90
18426;DHT22;9340;48.756;9.226;2023-04-29T11:53:45;20.00;99.90
18426;DHT22;9340;48.756;9.226;2023-04-29T11:56:12;19.80;99.90
18426;DHT22;9340;48.756;9.226;2023-04-29T11:58:40;19.70;99.90
18426;DHT22;9340;48.756;9.226;2023-04-29T12:01:07;19.60;99.90
18426;DHT22;9340;48.756;9.226;2023-04-29T12:03:33;19.70;99.90
18426;DHT22;9340;48.756;9.226;2023-04-29T12:06:02;19.60;99.90
18426;DHT22;9340;48.756;9.226;2023-04-29T12:08:29;19.50;99.90
18426;DHT22;9340;48.756;9.226;2023-04-29T12:10:58;19.50;99.90
18426;DHT22;9340;48.756;9.226;2023-04-29T12:13:27;19.40;99.90
18426;DHT22;9340;48.756;9.226;2023-04-29T12:15:55;19.00;99.90
18426;DHT22;9340;48.756;9.226;2023-04-29T12:18:22;18.70;99.90
18426;DHT22;9340;48.756;9.226;2023-04-29T12:20:49;18.80;99.90
18426;DHT22;9340;48.756;9.226;2023-04-29T12:23:19;18.80;99.90
18426;DHT22;9340;48.756;9.226;2023-04-29T12:25:48;19.00;99.90
18426;DHT22;9340;48.756;9.226;2023-04-29T12:28:16;18.90;99.90
18426;DHT22;9340;48.756;9.226;2023-04-29T12:30:43;18.90;99.90
18426;DHT22;9340;48.756;9.226;2023-04-29T12:33:15;19.00;99.90
18426;DHT22;9340;48.756;9.226;2023-04-29T12:35:43;19.20;99.90
18426;DHT22;9340;48.756;9.226;2023-04-29T12:38:10;19.60;99.90
18426;DHT22;9340;48.756;9.226;2023-04-29T12:40:40;19.50;99.90
18426;DHT22;9340;48.756;9.226;2023-04-29T12:43:07;19.40;99.90
18426;DHT22;9340;48.756;9.226;2023-04-29T12:45:34;19.00;99.90
18426;DHT22;9340;48.756;9.226;2023-04-29T12:48:01;18.90;99.90
18426;DHT22;9340;48.756;9.226;2023-04-29T12:50:34;18.70;99.90
18426;DHT22;9340;48.756;9.226;2023-04-29T12:53:02;18.80;99.90
18426;DHT22;9340;48.756;9.226;2023-04-29T12:55:31;18.90;99.90
18426;DHT22;9340;48.756;9.226;2023-04-29T12:58:00;18.90;99.90
18426;DHT22;9340;48.756;9.226;2023-04-29T13:00:26;19.00;99.90
18426;DHT22;9340;48.756;9.226;2023-04-29T13:02:53;19.20;99.90
18426;DHT22;9340;48.756;9.226;2023-04-29T13:05:20;19.70;99.90
18426;DHT22;9340;48.756;9.226;2023-04-29T13:07:47;19.80;99.90
18426;DHT22;9340;48.756;9.226;2023-04-29T13:10:14;19.70;99.90
18426;DHT22;9340;48.756;9.226;2023-04-29T13:12:40;19.90;99.90
18426;DHT22;9340;48.756;9.226;2023-04-29T13:15:09;20.00;99.90
18426;DHT22;9340;48.756;9.226;2023-04-29T13:17:36;20.00;99.90
18426;DHT22;9340;48.756;9.226;2023-04-29T13:20:04;19.90;99.90
18426;DHT22;9340;48.756;9.226;2023-04-29T13:22:31;20.00;99.90
18426;DHT22;9340;48.756;9.226;2023-04-29T13:24:57;20.00;99.90
18426;DHT22;9340;48.756;9.226;2023-04-29T13:27:24;20.00;99.90
18426;DHT22;9340;48.756;9.226;2023-04-29T13:29:51;20.20;99.90
18426;DHT22;9340;48.756;9.226;2023-04-29T13:32:21;20.40;99.90
18426;DHT22;9340;48.756;9.226;2023-04-29T13:34:49;20.30;99.90
18426;DHT22;9340;48.756;9.226;2023-04-29T13:37:15;20.30;99.90
18426;DHT22;9340;48.756;9.226;2023-04-29T13:39:44;20.20;99.90
18426;DHT22;9340;48.756;9.226;2023-04-29T13:42:10;20.00;99.90
18426;DHT22;9340;48.756;9.226;2023-04-29T13:44:37;19.80;99.90
18426;DHT22;9340;48.756;9.226;2023-04-29T13:47:09;19.50;99.90
18426;DHT22;9340;48.756;9.226;2023-04-29T13:49:38;18.80;99.90
18426;DHT22;9340;48.756;9.226;2023-04-29T13:52:06;18.50;99.90
18426;DHT22;9340;48.756;9.226;2023-04-29T13:54:32;18.50;99.90
18426;DHT22;9340;48.756;9.226;2023-04-29T13:56:59;18.60;99.90
18426;DHT22;9340;48.756;9.226;2023-04-29T13:59:28;18.50;99.90
18426;DHT22;9340;48.756;9.226;2023-04-29T14:01:55;18.40;99.90
18426;DHT22;9340;48.756;9.226;2023-04-29T14:04:22;18.20;99.90
18426;DHT22;9340;48.756;9.226;2023-04-29T14:06:50;18.00;99.90
18426;DHT22;9340;48.756;9.226;2023-04-29T14:09:16;18.30;99.90
18426;DHT22;9340;48.756;9.226;2023-04-29T14:11:44;18.50;99.90
18426;DHT22;9340;48.756;9.226;2023-04-29T14:14:11;18.40;99.90
18426;DHT22;9340;48.756;9.226;2023-04-29T14:16:38;18.20;99.90
18426;DHT22;9340;48.756;9.226;2023-04-29T14:19:05;17.90;99.90
18426;DHT22;9340;48.756;9.226;2023-04-29T14:21:31;17.80;99.90
18426;DHT22;9340;48.756;9.226;2023-04-29T14:24:00;18.00;99.90
18426;DHT22;9340;48.756;9.226;2023-04-29T14:26:28;17.80;99.90
18426;DHT22;9340;48.756;9.226;2023-04-29T14:28:55;17.80;99.90
18426;DHT22;9340;48.756;9.226;2023-04-29T14:31:22;18.10;99.90
18426;DHT22;9340;48.756;9.226;2023-04-29T14:33:49;18.00;99.90
18426;DHT22;9340;48.756;9.226;2023-04-29T14:36:16;17.90;99.90
18426;DHT22;9340;48.756;9.226;2023-04-29T14:38:43;17.80;99.90
18426;DHT22;9340;48.756;9.226;2023-04-29T14:41:11;17.80;99.90
18426;DHT22;9340;48.756;9.226;2023-04-29T14:43:37;18.20;99.90
18426;DHT22;9340;48.756;9.226;2023-04-29T14:46:05;18.30;99.90
18426;DHT22;9340;48.756;9.226;2023-04-29T14:48:32;18.40;99.90
18426;DHT22;9340;48.756;9.226;2023-04-29T14:50:59;18.30;99.90
18426;DHT22;9340;48.756;9.226;2023-04-29T14:53:25;17.50;99.90
18426;DHT22;9340;48.756;9.226;2023-04-29T14:55:52;17.30;99.90
18426;DHT22;9340;48.756;9.226;2023-04-29T14:58:20;17.50;99.90
18426;DHT22;9340;48.756;9.226;2023-04-29T15:00:47;17.70;99.90
18426;DHT22;9340;48.756;9.226;2023-04-29T15:03:15;18.20;99.90
18426;DHT22;9340;48.756;9.226;2023-04-29T15:05:42;18.10;99.90
18426;DHT22;9340;48.756;9.226;2023-04-29T15:08:09;18.00;99.90
18426;DHT22;9340;48.756;9.226;2023-04-29T15:10:36;17.80;99.90
18426;DHT22;9340;48.756;9.226;2023-04-29T15:13:02;17.60;99.90
18426;DHT22;9340;48.756;9.226;2023-04-29T15:15:32;17.40;99.90
18426;DHT22;9340;48.756;9.226;2023-04-29T15:17:59;17.50;99.90
18426;DHT22;9340;48.756;9.226;2023-04-29T15:20:25;17.60;99.90
18426;DHT22;9340;48.756;9.226;2023-04-29T15:22:52;18.00;99.90
18426;DHT22;9340;48.756;9.226;2023-04-29T15:25:19;18.10;99.90
18426;DHT22;9340;48.756;9.226;2023-04-29T15:27:45;18.00;99.90
18426;DHT22;9340;48.756;9.226;2023-04-29T15:30:13;17.70;99.90
18426;DHT22;9340;48.756;9.226;2023-04-29T15:32:42;17.90;99.90
18426;DHT22;9340;48.756;9.226;2023-04-29T15:35:09;18.10;99.90
18426;DHT22;9340;48.756;9.226;2023-04-29T15:37:36;18.30;99.90
18426;DHT22;9340;48.756;9.226;2023-04-29T15:40:03;18.30;99.90
18426;DHT22;9340;48.756;9.226;2023-04-29T15:42:30;18.00;99.90
18426;DHT22;9340;48.756;9.226;2023-04-29T15:44:57;17.80;99.90
18426;DHT22;9340;48.756;9.226;2023-04-29T15:47:23;17.70;99.90
18426;DHT22;9340;48.756;9.226;2023-04-29T15:49:51;17.70;99.90
18426;DHT22;9340;48.756;9.226;2023-04-29T15:52:20;17.90;99.90